createdAt,value
2023-04-05T00:00:37.430Z,-1.61
2023-04-05T00:02:44.261Z,-1.68
2023-04-05T00:04:57.554Z,-1.67
2023-04-05T00:07:08.678Z,-1.61
2023-04-05T00:09:14.024Z,-1.66
2023-04-05T00:11:21.955Z,-1.77
2023-04-05T00:13:27.174Z,-1.85
2023-04-05T00:15:32.991Z,-1.85
2023-04-05T00:17:38.322Z,-1.95
2023-04-05T00:19:45.257Z,-1.84
2023-04-05T00:21:50.536Z,-1.90
2023-04-05T00:23:58.654Z,-1.89
2023-04-05T00:26:03.877Z,-1.90
2023-04-05T00:28:11.914Z,-1.97
2023-04-05T00:30:21.163Z,-1.95
2023-04-05T00:32:26.576Z,-2.01
2023-04-05T00:34:32.749Z,-1.98
2023-04-05T00:36:39.015Z,-2.03
2023-04-05T00:38:45.730Z,-2.04
2023-04-05T00:40:50.905Z,-1.90
2023-04-05T00:42:55.992Z,-1.70
2023-04-05T00:45:04.043Z,-1.67
2023-04-05T00:47:10.198Z,-1.57
2023-04-05T00:49:16.022Z,-1.63
2023-04-05T00:51:24.222Z,-1.72
2023-04-05T00:53:28.128Z,-1.81
2023-04-05T00:55:34.215Z,-1.78
2023-04-05T00:57:40.057Z,-1.84
2023-04-05T00:59:45.788Z,-1.88
2023-04-05T01:01:58.815Z,-1.94
2023-04-05T01:04:07.849Z,-2.05
2023-04-05T01:06:30.496Z,-2.00
2023-04-05T01:08:45.699Z,-1.96
2023-04-05T01:10:59.894Z,-1.95
2023-04-05T01:13:05.619Z,-1.94
2023-04-05T01:15:12.779Z,-1.89
2023-04-05T01:17:22.626Z,-1.78
2023-04-05T01:19:35.522Z,-1.85
2023-04-05T01:22:26.523Z,-1.85
2023-04-05T01:24:47.838Z,-1.88
2023-04-05T01:27:09.834Z,-1.95
2023-04-05T01:29:54.357Z,-1.99
2023-04-05T01:32:05.845Z,-2.04
2023-04-05T01:34:23.284Z,-2.11
2023-04-05T01:36:37.277Z,-2.21
2023-04-05T01:38:47.551Z,-2.11
2023-04-05T01:40:53.581Z,-2.17
2023-04-05T01:42:58.607Z,-2.18
2023-04-05T01:45:07.729Z,-2.32
2023-04-05T01:47:12.721Z,-2.28
2023-04-05T01:49:17.799Z,-2.31
2023-04-05T01:51:23.108Z,-2.26
2023-04-05T01:53:28.924Z,-2.30
2023-04-05T01:55:34.439Z,-2.22
2023-04-05T01:57:39.797Z,-2.37
2023-04-05T01:59:44.838Z,-2.56
2023-04-05T02:01:54.587Z,-2.72
2023-04-05T02:03:59.807Z,-2.79
2023-04-05T02:06:05.437Z,-2.56
2023-04-05T02:08:10.462Z,-2.68
2023-04-05T02:10:16.017Z,-2.77
2023-04-05T02:12:21.076Z,-2.75
2023-04-05T02:14:28.033Z,-2.89
2023-04-05T02:16:34.582Z,-2.90
2023-04-05T02:18:43.763Z,-3.01
2023-04-05T02:20:49.531Z,-2.88
2023-04-05T02:22:55.569Z,-2.85
2023-04-05T02:25:01.599Z,-2.79
2023-04-05T02:27:08.027Z,-2.78
2023-04-05T02:29:13.035Z,-2.93
2023-04-05T02:31:18.538Z,-3.06
2023-04-05T02:33:24.856Z,-3.00
2023-04-05T02:35:32.774Z,-2.90
2023-04-05T02:37:38.015Z,-2.96
2023-04-05T02:39:43.281Z,-3.12
2023-04-05T02:41:50.345Z,-3.27
2023-04-05T02:43:55.338Z,-3.37
2023-04-05T02:46:00.858Z,-3.40
2023-04-05T02:48:06.399Z,-3.22
2023-04-05T02:50:11.804Z,-3.30
2023-04-05T02:52:24.360Z,-3.42
2023-04-05T02:54:29.473Z,-3.32
2023-04-05T02:56:42.209Z,-3.28
2023-04-05T02:58:51.796Z,-3.33
2023-04-05T03:01:06.200Z,-3.44
2023-04-05T03:03:11.941Z,-3.59
2023-04-05T03:05:20.861Z,-3.62
2023-04-05T03:07:33.270Z,-3.74
2023-04-05T03:09:40.684Z,-3.83
2023-04-05T03:11:48.275Z,-3.86
2023-04-05T03:13:54.578Z,-3.90
2023-04-05T03:16:14.752Z,-3.89
2023-04-05T03:18:20.952Z,-3.94
2023-04-05T03:20:27.991Z,-3.95
2023-04-05T03:22:40.276Z,-3.76
2023-04-05T03:24:46.753Z,-3.72
2023-04-05T03:26:54.389Z,-3.84
2023-04-05T03:29:02.183Z,-3.71
2023-04-05T03:31:11.448Z,-3.63
2023-04-05T03:33:17.565Z,-3.67
2023-04-05T03:35:25.958Z,-3.75
2023-04-05T03:37:31.339Z,-3.86
2023-04-05T03:39:42.156Z,-3.92
2023-04-05T03:41:47.271Z,-3.76
2023-04-05T03:43:52.705Z,-3.81
2023-04-05T03:46:01.209Z,-3.83
2023-04-05T03:48:08.900Z,-3.61
2023-04-05T03:50:14.202Z,-3.49
2023-04-05T03:52:19.221Z,-3.63
2023-04-05T03:54:24.758Z,-3.71
2023-04-05T03:56:36.901Z,-3.55
2023-04-05T03:58:56.330Z,-3.81
2023-04-05T04:01:06.899Z,-4.00
2023-04-05T04:03:12.415Z,-3.93
2023-04-05T04:05:21.451Z,-4.08
2023-04-05T04:07:31.539Z,-4.18
2023-04-05T04:09:36.668Z,-4.28
2023-04-05T04:11:49.730Z,-4.35
2023-04-05T04:13:58.521Z,-4.30
2023-04-05T04:16:13.650Z,-4.22
2023-04-05T04:18:45.467Z,-4.35
2023-04-05T04:21:13.700Z,-4.29
2023-04-05T04:23:40.488Z,-4.19
2023-04-05T04:26:27.058Z,-4.17
2023-04-05T04:28:51.198Z,-4.20
2023-04-05T04:31:16.359Z,-4.16
2023-04-05T04:33:44.000Z,-4.16
2023-04-05T04:35:57.781Z,-4.15
2023-04-05T04:38:20.568Z,-4.23
2023-04-05T04:40:53.978Z,-4.39
2023-04-05T04:43:14.696Z,-4.33
2023-04-05T04:45:38.328Z,-4.25
2023-04-05T04:48:05.124Z,-4.24
2023-04-05T04:50:36.328Z,-4.42
2023-04-05T04:52:41.999Z,-4.54
2023-04-05T04:54:47.426Z,-4.57
2023-04-05T04:56:52.415Z,-4.52
2023-04-05T04:58:59.254Z,-4.56
2023-04-05T05:01:11.716Z,-4.44
2023-04-05T05:03:17.472Z,-4.37
2023-04-05T05:05:24.170Z,-4.23
2023-04-05T05:07:29.151Z,-4.19
2023-04-05T05:09:34.713Z,-4.08
2023-04-05T05:11:39.962Z,-4.18
2023-04-05T05:13:51.164Z,-3.98
2023-04-05T05:16:02.044Z,-3.83
2023-04-05T05:18:10.519Z,-3.85
2023-04-05T05:20:15.858Z,-3.70
2023-04-05T05:22:23.931Z,-3.75
2023-04-05T05:24:29.461Z,-3.70
2023-04-05T05:26:34.528Z,-3.72
2023-04-05T05:28:39.999Z,-3.66
2023-04-05T05:30:45.193Z,-3.58
2023-04-05T05:32:50.848Z,-3.54
2023-04-05T05:34:58.684Z,-3.46
2023-04-05T05:37:03.724Z,-3.36
2023-04-05T05:39:09.260Z,-3.37
2023-04-05T05:41:14.319Z,-3.33
2023-04-05T05:43:20.942Z,-3.27
2023-04-05T05:45:26.103Z,-3.18
2023-04-05T05:47:31.274Z,-3.23
2023-04-05T05:49:36.274Z,-3.21
2023-04-05T05:51:43.820Z,-3.04
2023-04-05T05:53:48.881Z,-3.01
2023-04-05T05:55:54.069Z,-2.94
2023-04-05T05:57:59.964Z,-2.90
2023-04-05T06:00:09.574Z,-2.86
2023-04-05T06:02:18.180Z,-2.75
2023-04-05T06:04:23.361Z,-2.69
2023-04-05T06:06:30.178Z,-2.54
2023-04-05T06:08:38.095Z,-2.47
2023-04-05T06:10:43.118Z,-2.37
2023-04-05T06:12:48.091Z,-2.24
2023-04-05T06:14:53.331Z,-2.23
2023-04-05T06:16:58.522Z,-2.09
2023-04-05T06:19:03.577Z,-2.03
2023-04-05T06:21:09.030Z,-2.02
2023-04-05T06:23:14.314Z,-2.03
2023-04-05T06:25:21.903Z,-1.95
2023-04-05T06:27:27.239Z,-1.89
2023-04-05T06:29:32.227Z,-1.81
2023-04-05T06:31:39.027Z,-1.73
2023-04-05T06:33:44.191Z,-1.67
2023-04-05T06:35:50.069Z,-1.57
2023-04-05T06:37:55.479Z,-1.50
2023-04-05T06:40:02.231Z,-1.43
2023-04-05T06:42:09.894Z,-1.33
2023-04-05T06:44:22.063Z,-1.24
2023-04-05T06:46:27.529Z,-1.09
2023-04-05T06:48:32.701Z,-1.02
2023-04-05T06:50:37.704Z,-0.93
2023-04-05T06:52:42.735Z,-0.84
2023-04-05T06:54:47.711Z,-0.72
2023-04-05T06:56:52.709Z,-0.59
2023-04-05T06:59:02.415Z,-0.46
2023-04-05T07:01:08.597Z,-0.36
2023-04-05T07:03:13.710Z,-0.27
2023-04-05T07:05:18.970Z,-0.16
2023-04-05T07:07:24.182Z,-0.04
2023-04-05T07:09:30.855Z,0.09
2023-04-05T07:11:36.543Z,0.17
2023-04-05T07:13:41.566Z,0.31
2023-04-05T07:15:49.292Z,0.54
2023-04-05T07:17:54.589Z,0.66
2023-04-05T07:19:59.685Z,0.81
2023-04-05T07:22:04.681Z,0.90
2023-04-05T07:24:10.862Z,1.11
2023-04-05T07:26:15.893Z,1.26
2023-04-05T07:28:21.373Z,1.43
2023-04-05T07:30:26.843Z,1.41
2023-04-05T07:32:34.514Z,1.68
2023-04-05T07:34:41.697Z,1.77
2023-04-05T07:36:47.094Z,2.02
2023-04-05T07:38:52.223Z,2.04
2023-04-05T07:40:57.364Z,2.16
2023-04-05T07:43:02.499Z,2.39
2023-04-05T07:45:08.991Z,2.48
2023-04-05T07:47:14.015Z,2.72
2023-04-05T07:49:21.817Z,2.93
2023-04-05T07:51:28.110Z,2.87
2023-04-05T07:53:33.156Z,2.85
2023-04-05T07:55:41.497Z,3.20
2023-04-05T07:57:46.626Z,3.36
2023-04-05T07:59:54.869Z,3.40
2023-04-05T08:02:05.044Z,3.62
2023-04-05T08:04:22.743Z,3.83
2023-04-05T08:06:28.456Z,4.10
2023-04-05T08:08:33.744Z,4.14
2023-04-05T08:10:42.464Z,4.52
2023-04-05T08:12:47.761Z,4.59
2023-04-05T08:14:52.841Z,4.67
2023-04-05T08:16:57.872Z,4.74
2023-04-05T08:19:02.906Z,4.94
2023-04-05T08:21:10.544Z,4.89
2023-04-05T08:23:15.797Z,5.00
2023-04-05T08:25:20.827Z,5.07
2023-04-05T08:27:25.917Z,5.15
2023-04-05T08:29:30.946Z,5.12
2023-04-05T08:31:36.236Z,5.33
2023-04-05T08:33:41.577Z,5.45
2023-04-05T08:35:46.742Z,5.60
2023-04-05T08:37:54.437Z,5.77
2023-04-05T08:39:59.453Z,5.82
2023-04-05T08:42:11.877Z,5.87
2023-04-05T08:44:18.664Z,6.18
2023-04-05T08:46:25.228Z,6.34
2023-04-05T08:48:35.151Z,6.51
2023-04-05T08:50:40.385Z,6.60
2023-04-05T08:52:50.039Z,6.82
2023-04-05T08:54:59.871Z,7.04
2023-04-05T08:57:06.802Z,7.10
2023-04-05T08:59:14.497Z,7.15
2023-04-05T09:01:19.918Z,7.06
2023-04-05T09:03:27.298Z,7.12
2023-04-05T09:05:33.664Z,6.71
2023-04-05T09:07:40.279Z,6.93
2023-04-05T09:09:51.375Z,7.12
2023-04-05T09:11:59.879Z,7.21
2023-04-05T09:14:06.745Z,7.52
2023-04-05T09:16:12.741Z,7.76
2023-04-05T09:18:26.192Z,7.79
2023-04-05T09:20:32.664Z,7.90
2023-04-05T09:22:46.648Z,8.12
2023-04-05T09:24:52.517Z,7.42
2023-04-05T09:27:11.440Z,8.13
2023-04-05T09:29:32.698Z,7.83
2023-04-05T09:31:40.340Z,7.89
2023-04-05T09:33:49.761Z,8.02
2023-04-05T09:35:55.234Z,8.12
2023-04-05T09:38:02.153Z,8.39
2023-04-05T09:40:11.422Z,8.31
2023-04-05T09:42:23.240Z,8.43
2023-04-05T09:44:28.533Z,8.77
2023-04-05T09:46:38.432Z,8.74
2023-04-05T09:48:50.143Z,8.77
2023-04-05T09:53:19.412Z,8.27
2023-04-05T09:55:33.442Z,8.72
2023-04-05T09:57:44.089Z,8.58
2023-04-05T09:59:50.217Z,8.97
2023-04-05T10:01:55.901Z,8.74
2023-04-05T10:04:03.105Z,8.74
2023-04-05T10:06:08.782Z,8.72
2023-04-05T10:08:14.089Z,8.81
2023-04-05T10:10:19.102Z,8.88
2023-04-05T10:12:29.642Z,8.86
2023-04-05T10:14:37.734Z,8.94
2023-04-05T10:17:00.894Z,9.19
2023-04-05T10:19:09.171Z,9.02
2023-04-05T10:21:17.932Z,9.60
2023-04-05T10:23:31.196Z,9.08
2023-04-05T10:25:52.586Z,8.79
2023-04-05T10:28:06.771Z,9.41
2023-04-05T10:30:18.442Z,9.12
2023-04-05T10:32:38.734Z,9.17
2023-04-05T10:34:51.846Z,9.44
2023-04-05T10:37:01.666Z,9.48
2023-04-05T10:39:14.568Z,9.22
2023-04-05T10:41:19.898Z,9.37
2023-04-05T10:43:28.623Z,9.37
2023-04-05T10:45:37.999Z,9.83
2023-04-05T10:47:50.580Z,9.91
2023-04-05T10:49:59.823Z,9.74
2023-04-05T10:52:06.209Z,9.91
2023-04-05T10:54:12.608Z,9.28
2023-04-05T10:56:18.021Z,8.97
2023-04-05T10:58:25.008Z,8.90
2023-04-05T11:00:31.459Z,9.43
2023-04-05T11:02:39.430Z,9.35
2023-04-05T11:04:45.436Z,9.89
2023-04-05T11:06:50.750Z,10.51
2023-04-05T11:09:02.485Z,10.46
2023-04-05T11:11:08.026Z,10.73
2023-04-05T11:13:16.257Z,11.25
2023-04-05T11:15:34.918Z,11.03
2023-04-05T11:17:42.652Z,10.63
2023-04-05T11:19:55.190Z,10.89
2023-04-05T11:22:05.226Z,11.30
2023-04-05T11:24:15.284Z,11.64
2023-04-05T11:26:20.741Z,11.17
2023-04-05T11:28:32.567Z,11.22
2023-04-05T11:30:51.850Z,11.24
2023-04-05T11:32:59.621Z,11.36
2023-04-05T11:35:11.089Z,11.22
2023-04-05T11:37:19.352Z,11.57
2023-04-05T11:39:29.571Z,11.72
2023-04-05T11:41:37.316Z,11.57
2023-04-05T11:43:42.826Z,11.35
2023-04-05T11:45:48.090Z,11.53
2023-04-05T11:47:53.858Z,11.72
2023-04-05T11:50:02.788Z,11.92
2023-04-05T11:52:17.489Z,12.36
2023-04-05T11:54:35.655Z,12.77
2023-04-05T11:56:42.399Z,12.79
2023-04-05T11:58:49.064Z,12.38
2023-04-05T12:01:03.347Z,12.34
2023-04-05T12:03:08.563Z,12.67
2023-04-05T12:05:16.524Z,13.30
2023-04-05T12:07:23.156Z,12.51
2023-04-05T12:09:28.406Z,12.08
2023-04-05T12:11:33.832Z,12.13
2023-04-05T12:13:40.110Z,11.51
2023-04-05T12:15:45.316Z,11.75
2023-04-05T12:17:55.622Z,12.00
2023-04-05T12:20:00.813Z,12.34
2023-04-05T12:22:10.307Z,12.23
2023-04-05T12:24:16.249Z,12.35
2023-04-05T12:26:22.583Z,12.99
2023-04-05T12:28:28.731Z,13.51
2023-04-05T12:30:38.002Z,13.40
2023-04-05T12:32:51.371Z,14.18
2023-04-05T12:34:58.243Z,13.90
2023-04-05T12:37:04.265Z,13.59
2023-04-05T12:39:13.199Z,14.36
2023-04-05T12:41:18.727Z,14.43
2023-04-05T12:43:24.117Z,14.57
2023-04-05T12:45:31.443Z,14.42
2023-04-05T12:47:38.330Z,15.55
2023-04-05T12:49:43.351Z,15.55
2023-04-05T12:51:50.133Z,15.53
2023-04-05T12:53:59.718Z,15.58
2023-04-05T12:56:10.654Z,15.42
2023-04-05T12:58:17.853Z,15.34
2023-04-05T13:00:28.005Z,15.97
2023-04-05T13:02:33.273Z,15.03
2023-04-05T13:04:38.356Z,15.85
2023-04-05T13:06:43.580Z,16.22
2023-04-05T13:08:48.696Z,16.40
2023-04-05T13:10:55.112Z,16.86
2023-04-05T13:13:04.201Z,16.72
2023-04-05T13:15:11.701Z,17.30
2023-04-05T13:17:16.729Z,17.22
2023-04-05T13:19:21.911Z,16.92
2023-04-05T13:21:27.425Z,17.13
2023-04-05T13:23:32.712Z,17.09
2023-04-05T13:25:37.818Z,18.32
2023-04-05T13:27:43.149Z,18.53
2023-04-05T13:29:50.772Z,18.32
2023-04-05T13:31:56.303Z,18.29
2023-04-05T13:34:01.565Z,18.28
2023-04-05T13:36:07.160Z,18.64
2023-04-05T13:38:12.411Z,18.98
2023-04-05T13:40:17.712Z,19.22
2023-04-05T13:42:22.829Z,19.30
2023-04-05T13:44:28.225Z,19.19
2023-04-05T13:46:35.952Z,19.29
2023-04-05T13:48:41.593Z,19.16
2023-04-05T13:50:46.659Z,19.27
2023-04-05T13:52:51.838Z,18.83
2023-04-05T13:55:02.823Z,18.21
2023-04-05T13:57:11.306Z,17.79
2023-04-05T13:59:17.478Z,16.22
2023-04-05T14:01:22.708Z,14.95
2023-04-05T14:03:31.016Z,14.87
2023-04-05T14:05:36.125Z,15.67
2023-04-05T14:07:41.509Z,16.06
2023-04-05T14:09:47.504Z,16.94
2023-04-05T14:11:52.631Z,16.23
2023-04-05T14:13:58.573Z,17.32
2023-04-05T14:16:03.710Z,17.89
2023-04-05T14:18:09.105Z,18.68
2023-04-05T14:20:17.100Z,18.91
2023-04-05T14:22:22.493Z,19.73
2023-04-05T14:24:27.884Z,19.75
2023-04-05T14:26:32.942Z,19.85
2023-04-05T14:28:38.117Z,20.86
2023-04-05T14:30:43.333Z,21.56
2023-04-05T14:32:48.467Z,22.42
2023-04-05T14:34:53.748Z,21.87
2023-04-05T14:37:03.211Z,22.11
2023-04-05T14:39:08.609Z,22.10
2023-04-05T14:41:14.135Z,20.99
2023-04-05T14:43:19.306Z,22.06
2023-04-05T14:45:27.374Z,22.60
2023-04-05T14:47:32.468Z,21.89
2023-04-05T14:49:37.641Z,21.82
2023-04-05T14:51:43.168Z,21.12
2023-04-05T14:53:50.948Z,21.11
2023-04-05T14:55:56.313Z,22.24
2023-04-05T14:58:01.374Z,21.14
2023-04-05T15:00:08.240Z,19.37
2023-04-05T15:02:13.315Z,18.79
2023-04-05T15:04:18.359Z,17.75
2023-04-05T15:06:23.555Z,18.29
2023-04-05T15:08:28.613Z,17.84
2023-04-05T15:10:36.644Z,18.31
2023-04-05T15:12:41.789Z,19.48
2023-04-05T15:14:48.856Z,19.68
2023-04-05T15:16:54.225Z,19.59
2023-04-05T15:18:59.421Z,20.92
2023-04-05T15:21:05.191Z,22.15
2023-04-05T15:23:10.405Z,21.73
2023-04-05T15:25:15.935Z,22.73
2023-04-05T15:27:23.604Z,22.45
2023-04-05T15:29:28.857Z,22.12
2023-04-05T15:31:37.485Z,19.61
2023-04-05T15:33:42.593Z,18.87
2023-04-05T15:35:48.241Z,17.79
2023-04-05T15:37:53.316Z,15.98
2023-04-05T15:39:58.822Z,14.78
2023-04-05T15:42:06.473Z,14.03
2023-04-05T15:44:14.119Z,14.74
2023-04-05T15:46:19.490Z,15.32
2023-04-05T15:48:24.585Z,16.05
2023-04-05T15:50:30.084Z,17.49
2023-04-05T15:52:35.931Z,18.50
2023-04-05T15:54:41.131Z,18.18
2023-04-05T15:56:46.652Z,18.62
2023-04-05T15:58:51.745Z,18.36
2023-04-05T16:00:59.417Z,19.26
2023-04-05T16:03:05.451Z,20.80
2023-04-05T16:05:11.076Z,20.35
2023-04-05T16:07:16.656Z,20.10
2023-04-05T16:09:22.057Z,19.97
2023-04-05T16:11:27.822Z,19.69
2023-04-05T16:13:32.959Z,20.23
2023-04-05T16:15:38.282Z,20.16
2023-04-05T16:17:46.319Z,20.74
2023-04-05T16:19:51.392Z,21.49
2023-04-05T16:21:57.328Z,21.05
2023-04-05T16:24:04.074Z,21.41
2023-04-05T16:26:10.495Z,21.74
2023-04-05T16:28:16.105Z,21.60
2023-04-05T16:30:21.290Z,21.02
2023-04-05T16:32:26.625Z,20.52
2023-04-05T16:34:36.661Z,21.30
2023-04-05T16:36:41.902Z,20.68
2023-04-05T16:38:47.554Z,21.25
2023-04-05T16:40:52.929Z,21.45
2023-04-05T16:42:58.989Z,20.86
2023-04-05T16:45:05.166Z,20.42
2023-04-05T16:47:10.736Z,20.72
2023-04-05T16:49:15.983Z,21.38
2023-04-05T16:51:23.613Z,19.60
2023-04-05T16:53:28.978Z,19.12
2023-04-05T16:55:34.045Z,18.23
2023-04-05T16:57:39.432Z,17.74
2023-04-05T16:59:44.845Z,15.90
2023-04-05T17:01:49.968Z,14.74
2023-04-05T17:03:57.656Z,13.74
2023-04-05T17:06:03.595Z,13.10
2023-04-05T17:08:11.508Z,12.26
2023-04-05T17:10:16.813Z,11.58
2023-04-05T17:12:21.962Z,11.08
2023-04-05T17:14:27.391Z,10.73
2023-04-05T17:16:33.350Z,10.43
2023-04-05T17:18:39.639Z,10.00
2023-04-05T17:20:46.507Z,10.08
2023-04-05T17:22:52.633Z,9.93
2023-04-05T17:25:01.405Z,9.80
2023-04-05T17:27:07.606Z,9.76
2023-04-05T17:29:12.981Z,9.29
2023-04-05T17:31:19.200Z,8.94
2023-04-05T17:33:24.615Z,8.64
2023-04-05T17:35:31.521Z,8.30
2023-04-05T17:37:37.398Z,7.99
2023-04-05T17:39:42.478Z,7.77
2023-04-05T17:41:51.265Z,7.41
2023-04-05T17:43:57.681Z,7.21
2023-04-05T17:46:04.501Z,6.96
2023-04-05T17:48:10.528Z,6.67
2023-04-05T17:50:17.357Z,6.40
2023-04-05T17:52:23.696Z,6.12
2023-04-05T17:54:30.199Z,6.02
2023-04-05T17:56:36.438Z,5.80
2023-04-05T17:58:46.442Z,5.60
2023-04-05T18:00:53.701Z,5.39
2023-04-05T18:03:05.996Z,5.24
2023-04-05T18:05:14.301Z,4.91
2023-04-05T18:07:19.821Z,4.61
2023-04-05T18:09:24.839Z,4.44
2023-04-05T18:11:29.867Z,4.30
2023-04-05T18:13:35.145Z,4.10
2023-04-05T18:15:43.277Z,3.97
2023-04-05T18:17:48.397Z,3.94
2023-04-05T18:19:54.753Z,3.71
2023-04-05T18:21:59.938Z,3.57
2023-04-05T18:24:04.980Z,3.47
2023-04-05T18:26:10.362Z,3.34
2023-04-05T18:28:22.936Z,3.32
2023-04-05T18:30:28.625Z,3.13
2023-04-05T18:32:36.526Z,2.97
2023-04-05T18:34:41.548Z,2.84
2023-04-05T18:36:46.729Z,2.87
2023-04-05T18:38:52.020Z,2.85
2023-04-05T18:41:04.162Z,2.71
2023-04-05T18:43:09.235Z,2.71
2023-04-05T18:45:14.945Z,2.74
2023-04-05T18:47:19.984Z,2.46
2023-04-05T18:49:28.036Z,2.37
2023-04-05T18:51:33.551Z,2.35
2023-04-05T18:53:38.694Z,2.21
2023-04-05T18:55:43.723Z,2.09
2023-04-05T18:57:48.727Z,1.97
2023-04-05T18:59:53.732Z,2.00
2023-04-05T19:01:59.169Z,2.00
2023-04-05T19:04:06.355Z,1.89
2023-04-05T19:06:14.138Z,1.76
2023-04-05T19:08:19.675Z,1.65
2023-04-05T19:10:24.679Z,1.59
2023-04-05T19:12:29.709Z,1.55
2023-04-05T19:14:35.150Z,1.58
2023-04-05T19:16:40.253Z,1.51
2023-04-05T19:18:45.487Z,1.36
2023-04-05T19:20:50.869Z,1.28
2023-04-05T19:22:58.479Z,1.18
2023-04-05T19:25:03.599Z,1.09
2023-04-05T19:27:09.196Z,1.02
2023-04-05T19:29:14.269Z,0.92
2023-04-05T19:31:19.372Z,0.76
2023-04-05T19:33:24.479Z,0.73
2023-04-05T19:35:29.545Z,0.64
2023-04-05T19:37:34.597Z,0.59
2023-04-05T19:39:43.192Z,0.46
2023-04-05T19:41:48.245Z,0.55
2023-04-05T19:43:53.287Z,0.51
2023-04-05T19:46:01.695Z,0.46
2023-04-05T19:48:37.279Z,0.36
2023-04-05T19:50:50.057Z,0.27
2023-04-05T19:52:55.138Z,0.22
2023-04-05T19:55:03.247Z,0.13
2023-04-05T19:57:09.985Z,0.18
2023-04-05T19:59:32.651Z,0.13
2023-04-05T20:01:40.640Z,0.21
2023-04-05T20:03:45.728Z,0.16
2023-04-05T20:06:10.896Z,0.06
2023-04-05T20:08:16.547Z,0.04
2023-04-05T20:10:47.874Z,-0.12
2023-04-05T20:12:52.944Z,-0.09
2023-04-05T20:14:57.971Z,-0.17
2023-04-05T20:17:03.299Z,-0.21
2023-04-05T20:19:10.728Z,-0.23
2023-04-05T20:21:17.010Z,-0.28
2023-04-05T20:23:24.920Z,-0.18
2023-04-05T20:25:46.931Z,-0.23
2023-04-05T20:27:51.960Z,-0.22
2023-04-05T20:29:58.325Z,-0.37
2023-04-05T20:32:04.774Z,-0.49
2023-04-05T20:34:13.744Z,-0.56
2023-04-05T20:36:22.780Z,-0.40
2023-04-05T20:38:28.941Z,-0.48
2023-04-05T20:40:33.959Z,-0.54
2023-04-05T20:42:42.966Z,-0.63
2023-04-05T20:44:48.419Z,-0.70
2023-04-05T20:46:54.987Z,-0.59
2023-04-05T20:49:00.193Z,-0.55
2023-04-05T20:51:08.978Z,-0.50
2023-04-05T20:53:15.388Z,-0.50
2023-04-05T20:55:20.894Z,-0.55
2023-04-05T20:57:26.497Z,-0.65
2023-04-05T20:59:34.217Z,-0.63
2023-04-05T21:01:39.704Z,-0.72
2023-04-05T21:03:45.772Z,-0.81
2023-04-05T21:05:51.236Z,-0.84
2023-04-05T21:07:56.692Z,-0.82
2023-04-05T21:10:01.949Z,-0.83
2023-04-05T21:12:07.907Z,-0.92
2023-04-05T21:14:12.937Z,-0.89
2023-04-05T21:16:20.880Z,-0.93
2023-04-05T21:18:26.349Z,-1.02
2023-04-05T21:20:31.898Z,-1.10
2023-04-05T21:22:38.181Z,-1.24
2023-04-05T21:24:43.169Z,-1.19
2023-04-05T21:26:48.184Z,-1.27
2023-04-05T21:28:53.215Z,-1.18
2023-04-05T21:30:58.316Z,-1.03
2023-04-05T21:33:06.808Z,-1.05
2023-04-05T21:35:12.829Z,-1.10
2023-04-05T21:37:17.918Z,-1.07
2023-04-05T21:39:22.910Z,-1.09
2023-04-05T21:41:28.436Z,-1.17
2023-04-05T21:43:33.989Z,-1.28
2023-04-05T21:45:38.976Z,-1.46
2023-04-05T21:47:44.331Z,-1.48
2023-04-05T21:49:52.854Z,-1.49
2023-04-05T21:51:58.254Z,-1.42
2023-04-05T21:54:03.693Z,-1.57
2023-04-05T21:56:08.809Z,-1.55
2023-04-05T21:58:14.104Z,-1.55
2023-04-05T22:00:20.007Z,-1.49
2023-04-05T22:02:25.334Z,-1.59
2023-04-05T22:04:31.166Z,-1.60
2023-04-05T22:06:39.560Z,-1.61
2023-04-05T22:08:44.909Z,-1.55
2023-04-05T22:10:50.089Z,-1.60
2023-04-05T22:12:55.122Z,-1.72
2023-04-05T22:15:01.535Z,-1.83
2023-04-05T22:17:06.825Z,-1.89
2023-04-05T22:19:13.540Z,-1.91
2023-04-05T22:21:18.546Z,-1.89
2023-04-05T22:23:26.817Z,-1.93
2023-04-05T22:25:31.797Z,-1.87
2023-04-05T22:27:37.057Z,-1.90
2023-04-05T22:29:42.214Z,-1.77
2023-04-05T22:31:47.207Z,-1.86
2023-04-05T22:33:52.604Z,-2.00
2023-04-05T22:35:57.674Z,-1.99
2023-04-05T22:38:02.797Z,-2.06
2023-04-05T22:40:12.294Z,-2.17
2023-04-05T22:42:17.296Z,-2.23
2023-04-05T22:44:24.639Z,-2.26
2023-04-05T22:46:29.744Z,-2.32
2023-04-05T22:48:35.016Z,-2.13
2023-04-05T22:50:40.004Z,-2.09
2023-04-05T22:52:45.122Z,-2.19
2023-04-05T22:54:50.156Z,-2.28
2023-04-05T22:56:58.297Z,-2.34
2023-04-05T22:59:03.537Z,-2.16
2023-04-05T23:01:08.689Z,-2.14
2023-04-05T23:03:13.698Z,-2.21
2023-04-05T23:05:18.899Z,-2.32
2023-04-05T23:07:24.130Z,-2.35
2023-04-05T23:09:30.203Z,-2.39
2023-04-05T23:11:36.005Z,-2.41
2023-04-05T23:13:43.732Z,-2.44
2023-04-05T23:15:48.750Z,-2.48
2023-04-05T23:17:54.032Z,-2.55
2023-04-05T23:19:59.368Z,-2.57
2023-04-05T23:22:04.393Z,-2.62
2023-04-05T23:24:11.000Z,-2.63
2023-04-05T23:26:16.281Z,-2.68
2023-04-05T23:28:21.537Z,-2.71
2023-04-05T23:30:29.205Z,-2.74
2023-04-05T23:32:34.266Z,-2.76
2023-04-05T23:34:39.776Z,-2.78
2023-04-05T23:36:44.800Z,-2.75
2023-04-05T23:38:50.060Z,-2.85
2023-04-05T23:40:55.033Z,-2.93
2023-04-05T23:43:00.099Z,-2.86
2023-04-05T23:45:09.032Z,-2.91
2023-04-05T23:47:17.861Z,-2.86
2023-04-05T23:49:23.599Z,-2.86
2023-04-05T23:51:29.606Z,-2.68
2023-04-05T23:53:34.595Z,-2.78
2023-04-05T23:55:42.621Z,-2.78
2023-04-05T23:57:47.598Z,-2.66
2023-04-05T23:59:54.217Z,-2.61
